Time;durP1;ratioP1;P1;durP2;ratioP2;P2;SDS_P1;SDS_P2;PMS_P1;PMS_P2;Temp;Humidity;BMP_temperature;BMP_pressure;BME280_temperature;BME280_humidity;BME280_pressure;Samples;Min_cycle;Max_cycle;Signal;HPM_P1;HPM_P2
2021/09/17 00:04:05;;;;;;;38.00;21.77;;;;;;;18.07;100.00;99891.71;713816;1200;114951;-71
2021/09/17 00:19:07;;;;;;;38.20;23.60;;;;;;;18.05;100.00;99883.11;713859;1202;114416;-73
2021/09/17 00:34:09;;;;;;;44.88;26.63;;;;;;;18.04;100.00;99875.34;713736;1199;115911;-72
2021/09/17 00:49:12;;;;;;;50.73;29.23;;;;;;;18.06;100.00;99882.11;713811;1202;114436;-72
2021/09/17 01:04:15;;;;;;;51.10;30.28;;;;;;;17.97;100.00;99862.04;713776;1203;115416;-71
2021/09/17 01:19:18;;;;;;;45.50;28.48;;;;;;;17.88;100.00;99847.25;714029;1200;114853;-71
2021/09/17 01:34:22;;;;;;;55.40;30.20;;;;;;;17.67;100.00;99843.66;713899;1200;114872;-71
2021/09/17 01:49:24;;;;;;;55.90;30.75;;;;;;;17.57;100.00;99832.55;713997;1199;115618;-73
2021/09/17 02:04:27;;;;;;;53.95;30.90;;;;;;;17.61;100.00;99836.45;713774;1199;114744;-71
2021/09/17 02:19:29;;;;;;;49.00;28.83;;;;;;;17.54;100.00;99823.15;713802;1202;114381;-72
2021/09/17 02:34:31;;;;;;;49.80;29.53;;;;;;;17.35;100.00;99821.95;713828;1203;114308;-71
2021/09/17 02:49:33;;;;;;;44.60;26.70;;;;;;;17.34;100.00;99815.04;713632;1189;114593;-71
2021/09/17 03:04:36;;;;;;;56.18;30.98;;;;;;;17.13;100.00;99821.98;713837;1178;114405;-71
2021/09/17 03:19:39;;;;;;;62.10;35.70;;;;;;;17.15;100.00;99805.08;713805;1199;114573;-73
2021/09/17 03:34:41;;;;;;;33.50;20.85;;;;;;;17.13;100.00;99792.83;713859;1177;114821;-70
2021/09/17 03:49:43;;;;;;;31.85;18.95;;;;;;;17.19;100.00;99787.78;713849;1200;114317;-71
2021/09/17 04:04:45;;;;;;;40.65;22.35;;;;;;;17.03;100.00;99778.27;713836;1200;115437;-71
2021/09/17 04:19:48;;;;;;;44.45;27.03;;;;;;;17.07;100.00;99788.28;714605;1200;115792;-72
2021/09/17 04:34:50;;;;;;;41.38;24.13;;;;;;;17.12;100.00;99788.53;714356;1203;115560;-72
2021/09/17 04:49:52;;;;;;;43.43;25.07;;;;;;;17.08;100.00;99781.98;713983;1203;114654;-72
2021/09/17 05:05:14;;;;;;;41.90;22.80;;;;;;;17.18;100.00;99794.89;714436;1202;114891;-72
2021/09/17 05:20:18;;;;;;;45.05;25.10;;;;;;;17.33;100.00;99794.84;715217;1176;114346;-72
2021/09/17 05:35:20;;;;;;;38.30;23.10;;;;;;;17.37;100.00;99798.73;714073;1199;115401;-73
2021/09/17 05:50:23;;;;;;;44.13;24.48;;;;;;;17.49;100.00;99799.04;713841;1202;114273;-72
2021/09/17 06:05:25;;;;;;;44.85;25.83;;;;;;;17.51;100.00;99799.65;713891;1188;114560;-71
2021/09/17 06:20:27;;;;;;;37.10;22.50;;;;;;;17.38;100.00;99796.90;713912;1199;114894;-75
2021/09/17 06:35:29;;;;;;;31.10;19.93;;;;;;;17.44;100.00;99796.95;714493;1176;114321;-74
2021/09/17 06:50:32;;;;;;;38.40;24.20;;;;;;;17.65;100.00;99805.88;714043;1202;115549;-71
2021/09/17 07:05:34;;;;;;;30.15;17.58;;;;;;;17.48;100.00;99817.80;714062;1200;114519;-70
2021/09/17 07:20:39;;;;;;;22.37;17.00;;;;;;;17.62;100.00;99808.93;713924;1199;115846;-74
2021/09/17 07:35:42;;;;;;;19.55;14.75;;;;;;;18.18;100.00;99810.72;714147;1200;115984;-75
2021/09/17 07:50:44;;;;;;;20.85;13.85;;;;;;;17.84;100.00;99819.47;714231;1200;115653;-74
2021/09/17 08:05:46;;;;;;;19.30;14.63;;;;;;;17.79;100.00;99812.92;714009;1199;115958;-71
2021/09/17 08:20:50;;;;;;;17.30;13.05;;;;;;;17.95;100.00;99811.02;714518;1199;115798;-70
2021/09/17 08:35:53;;;;;;;24.07;14.87;;;;;;;18.58;100.00;99805.59;714090;1202;114336;-74
2021/09/17 08:50:58;;;;;;;15.58;12.00;;;;;;;18.79;100.00;99823.22;714359;1200;115420;-75
2021/09/17 09:06:10;;;;;;;16.65;12.00;;;;;;;19.11;100.00;99818.20;714703;1199;114635;-74
2021/09/17 09:21:25;;;;;;;14.63;11.93;;;;;;;19.47;100.00;99812.70;714358;1176;114936;-73
2021/09/17 09:36:29;;;;;;;19.05;12.88;;;;;;;20.07;100.00;99804.63;714818;1200;114741;-76
2021/09/17 09:51:54;;;;;;;11.55;7.80;;;;;;;20.65;100.00;99801.11;715397;1177;114299;-75
2021/09/17 10:07:07;;;;;;;14.98;7.85;;;;;;;21.05;100.00;99795.58;714918;1199;114849;-73
2021/09/17 10:22:24;;;;;;;8.80;4.95;;;;;;;23.16;100.00;99797.38;714538;1200;115663;-78
2021/09/17 10:38:06;;;;;;;5.93;3.78;;;;;;;21.82;100.00;99793.73;714853;1202;114464;-70
2021/09/17 10:53:11;;;;;;;6.43;3.88;;;;;;;21.53;100.00;99780.82;714061;1200;115331;-73
2021/09/17 11:08:50;;;;;;;7.28;4.00;;;;;;;21.07;100.00;99774.83;714083;1200;115662;-70
2021/09/17 11:23:53;;;;;;;4.93;3.10;;;;;;;21.30;100.00;99770.78;714181;1201;115559;-71
2021/09/17 11:39:29;;;;;;;9.15;5.00;;;;;;;22.16;100.00;99757.59;713998;1200;115493;-70
2021/09/17 11:54:33;;;;;;;3.50;3.20;;;;;;;22.62;100.00;99755.38;714238;1199;116311;-69
2021/09/17 12:09:37;;;;;;;3.63;3.05;;;;;;;21.64;100.00;99757.15;714531;1200;114470;-69
2021/09/17 12:24:43;;;;;;;5.63;3.35;;;;;;;21.07;100.00;99750.84;714148;1202;114457;-73
2021/09/17 12:39:46;;;;;;;8.90;6.38;;;;;;;20.68;100.00;99752.74;713963;1199;115347;-73
2021/09/17 12:54:48;;;;;;;9.63;5.70;;;;;;;21.24;100.00;99751.11;714167;1203;114846;-71
2021/09/17 13:09:51;;;;;;;5.73;4.48;;;;;;;22.14;100.00;99738.30;714805;1199;115038;-71
2021/09/17 13:24:53;;;;;;;5.68;3.90;;;;;;;21.98;100.00;99742.39;714409;1201;114695;-71
2021/09/17 13:39:56;;;;;;;5.53;4.53;;;;;;;21.64;100.00;99738.47;714110;1177;113967;-69
2021/09/17 13:54:58;;;;;;;6.38;4.95;;;;;;;21.16;100.00;99738.06;714233;1205;114643;-70
2021/09/17 14:10:02;;;;;;;7.20;5.15;;;;;;;20.64;100.00;99742.72;714370;1177;114380;-72
2021/09/17 14:25:05;;;;;;;5.80;5.20;;;;;;;20.07;100.00;99730.93;716069;1202;114449;-73
2021/09/17 14:40:09;;;;;;;4.40;3.23;;;;;;;19.73;100.00;99732.84;714042;1189;114073;-72
2021/09/17 14:55:12;;;;;;;3.55;2.70;;;;;;;19.75;100.00;99736.10;714040;1200;115389;-72
2021/09/17 15:10:14;;;;;;;4.30;2.63;;;;;;;19.75;100.00;99728.12;714013;1199;115017;-76
2021/09/17 15:25:17;;;;;;;3.18;2.40;;;;;;;19.69;100.00;99733.45;714097;1177;114149;-72
2021/09/17 15:40:20;;;;;;;5.05;3.43;;;;;;;19.60;100.00;99730.22;713994;1199;115247;-72
2021/09/17 15:55:23;;;;;;;30.47;16.83;;;;;;;19.58;100.00;99732.26;714120;1199;114980;-75
2021/09/17 16:10:25;;;;;;;3.58;3.00;;;;;;;19.03;100.00;99749.29;714391;1200;115546;-74
2021/09/17 16:25:28;;;;;;;5.73;3.20;;;;;;;18.75;100.00;99752.91;714166;1199;113958;-74
2021/09/17 16:40:30;;;;;;;11.37;10.43;;;;;;;18.43;100.00;99739.33;713999;1199;114467;-75
2021/09/17 16:55:33;;;;;;;42.25;24.48;;;;;;;18.21;100.00;99749.29;714203;1175;115130;-73
2021/09/17 17:10:36;;;;;;;65.98;31.73;;;;;;;18.21;100.00;99759.91;714088;1202;115301;-70
2021/09/17 17:25:39;;;;;;;14.30;10.05;;;;;;;17.96;100.00;99767.52;714302;1202;114435;-71
2021/09/17 17:40:42;;;;;;;11.53;9.27;;;;;;;17.94;100.00;99764.27;714130;1176;114450;-70
2021/09/17 17:55:45;;;;;;;10.00;4.80;;;;;;;17.88;100.00;99760.53;714085;1199;115244;-70
2021/09/17 18:10:48;;;;;;;13.58;8.78;;;;;;;17.95;100.00;99764.06;714246;1173;114153;-70
2021/09/17 18:25:52;;;;;;;8.23;5.20;;;;;;;17.76;100.00;99768.22;714006;1200;114106;-69
2021/09/17 18:40:56;;;;;;;26.40;15.97;;;;;;;17.69;100.00;99775.30;714297;1199;115776;-70
2021/09/17 18:55:59;;;;;;;16.70;10.08;;;;;;;17.66;100.00;99778.35;714189;1178;114403;-74
2021/09/17 19:11:02;;;;;;;21.08;10.30;;;;;;;17.60;100.00;99781.77;714313;1202;116233;-74
2021/09/17 19:26:05;;;;;;;9.20;6.40;;;;;;;17.73;100.00;99781.86;714141;1203;114621;-73
2021/09/17 19:41:07;;;;;;;12.18;8.48;;;;;;;17.66;100.00;99783.66;713985;1200;114386;-74
2021/09/17 19:56:11;;;;;;;9.03;6.47;;;;;;;17.61;100.00;99780.77;714166;1199;115580;-75
2021/09/17 20:11:14;;;;;;;6.85;4.50;;;;;;;17.35;100.00;99790.14;714604;1199;114503;-73
2021/09/17 20:26:16;;;;;;;10.80;6.80;;;;;;;17.27;100.00;99795.59;715382;1199;115283;-73
2021/09/17 20:41:22;;;;;;;22.75;12.03;;;;;;;17.35;100.00;99792.80;715433;1199;114215;-73
2021/09/17 20:56:28;;;;;;;29.73;15.23;;;;;;;17.29;100.00;99799.69;715356;1199;115481;-73
2021/09/17 21:11:31;;;;;;;13.93;7.90;;;;;;;17.30;100.00;99801.34;714388;1199;114295;-73
2021/09/17 21:26:35;;;;;;;11.90;7.40;;;;;;;17.31;100.00;99799.49;715058;1176;114864;-74
2021/09/17 21:41:37;;;;;;;17.65;9.98;;;;;;;17.29;100.00;99788.28;715365;1200;114556;-74
2021/09/17 21:56:39;;;;;;;20.18;13.43;;;;;;;17.35;100.00;99789.34;714475;1199;115558;-72
2021/09/17 22:11:41;;;;;;;25.30;14.38;;;;;;;17.13;100.00;99790.17;714285;1200;115721;-74
2021/09/17 22:26:44;;;;;;;18.53;11.80;;;;;;;16.85;100.00;99776.83;714652;1202;114975;-74
2021/09/17 22:41:46;;;;;;;12.43;8.43;;;;;;;16.63;100.00;99774.17;715995;1202;116060;-74
2021/09/17 22:56:48;;;;;;;11.50;8.03;;;;;;;16.55;100.00;99786.69;714551;1193;114723;-73
2021/09/17 23:11:50;;;;;;;10.18;6.85;;;;;;;16.55;100.00;99791.98;714372;1204;114937;-74
2021/09/17 23:26:53;;;;;;;14.75;8.15;;;;;;;16.60;100.00;99794.90;714268;1200;115582;-73
2021/09/17 23:41:56;;;;;;;7.63;6.45;;;;;;;16.64;100.00;99796.16;714004;1177;114227;-73
2021/09/17 23:56:58;;;;;;;7.30;5.28;;;;;;;16.60;100.00;99803.68;713792;1200;115134;-72
